sensor_id;sensor_type;location;lat;lon;timestamp;pressure;altitude;pressure_sealevel;temperature;humidity
46412;BME280;32113;42.012;24.870;2023-01-29T00:01:56;99123.81;;;7.79;52.55
46412;BME280;32113;42.012;24.870;2023-01-29T00:04:22;99122.97;;;7.75;51.69
46412;BME280;32113;42.012;24.870;2023-01-29T00:06:47;99123.78;;;7.72;50.98
46412;BME280;32113;42.012;24.870;2023-01-29T00:09:12;99128.03;;;7.69;50.72
46412;BME280;32113;42.012;24.870;2023-01-29T00:11:38;99126.34;;;7.69;50.92
46412;BME280;32113;42.012;24.870;2023-01-29T00:14:03;99131.47;;;7.71;50.76
46412;BME280;32113;42.012;24.870;2023-01-29T00:16:29;99128.06;;;7.76;50.40
46412;BME280;32113;42.012;24.870;2023-01-29T00:18:54;99132.28;;;7.70;50.18
46412;BME280;32113;42.012;24.870;2023-01-29T00:21:20;99131.47;;;7.71;50.22
46412;BME280;32113;42.012;24.870;2023-01-29T00:23:49;99138.28;;;7.75;49.69
46412;BME280;32113;42.012;24.870;2023-01-29T00:26:14;99141.69;;;7.82;49.47
46412;BME280;32113;42.012;24.870;2023-01-29T00:28:40;99140.88;;;7.84;49.97
46412;BME280;32113;42.012;24.870;2023-01-29T00:31:09;99140.84;;;7.83;49.86
46412;BME280;32113;42.012;24.870;2023-01-29T00:33:35;99146.81;;;7.86;49.46
46412;BME280;32113;42.012;24.870;2023-01-29T00:36:04;99145.97;;;7.84;49.32
46412;BME280;32113;42.012;24.870;2023-01-29T00:38:30;99140.84;;;7.81;48.90
46412;BME280;32113;42.012;24.870;2023-01-29T00:40:55;99146.81;;;7.85;49.00
46412;BME280;32113;42.012;24.870;2023-01-29T00:43:39;99142.53;;;7.81;48.25
46412;BME280;32113;42.012;24.870;2023-01-29T00:46:23;99143.41;;;7.83;48.87
46412;BME280;32113;42.012;24.870;2023-01-29T00:48:48;99144.22;;;7.69;47.46
46412;BME280;32113;42.012;24.870;2023-01-29T00:51:13;99143.38;;;7.66;48.15
46412;BME280;32113;42.012;24.870;2023-01-29T00:53:39;99139.91;;;7.60;47.74
46412;BME280;32113;42.012;24.870;2023-01-29T00:56:04;99135.69;;;7.67;47.73
46412;BME280;32113;42.012;24.870;2023-01-29T00:58:29;99136.53;;;7.60;47.99
46412;BME280;32113;42.012;24.870;2023-01-29T01:00:58;99133.16;;;7.64;47.41
46412;BME280;32113;42.012;24.870;2023-01-29T01:03:25;99136.56;;;7.68;47.59
46412;BME280;32113;42.012;24.870;2023-01-29T01:05:50;99134.81;;;7.62;48.06
46412;BME280;32113;42.012;24.870;2023-01-29T01:08:26;99129.72;;;7.57;47.79
46412;BME280;32113;42.012;24.870;2023-01-29T01:11:10;99139.09;;;7.65;48.23
46412;BME280;32113;42.012;24.870;2023-01-29T01:13:35;99136.56;;;7.71;48.47
46412;BME280;32113;42.012;24.870;2023-01-29T01:16:01;99135.75;;;7.81;48.27
46412;BME280;32113;42.012;24.870;2023-01-29T01:18:29;99132.31;;;7.82;48.68
46412;BME280;32113;42.012;24.870;2023-01-29T01:20:57;99140.84;;;7.83;48.52
46412;BME280;32113;42.012;24.870;2023-01-29T01:23:23;99139.16;;;7.86;47.50
46412;BME280;32113;42.012;24.870;2023-01-29T01:25:49;99149.34;;;7.82;48.21
46412;BME280;32113;42.012;24.870;2023-01-29T01:28:14;99147.63;;;7.79;48.83
46412;BME280;32113;42.012;24.870;2023-01-29T01:30:39;99150.19;;;7.79;49.39
46412;BME280;32113;42.012;24.870;2023-01-29T01:33:05;99151.91;;;7.82;49.14
46412;BME280;32113;42.012;24.870;2023-01-29T01:35:30;99150.19;;;7.74;49.09
46412;BME280;32113;42.012;24.870;2023-01-29T01:37:55;99152.69;;;7.60;49.29
46412;BME280;32113;42.012;24.870;2023-01-29T01:40:21;99149.28;;;7.55;49.63
46412;BME280;32113;42.012;24.870;2023-01-29T01:42:47;99153.50;;;7.50;49.37
46412;BME280;32113;42.012;24.870;2023-01-29T01:45:17;99151.81;;;7.44;50.35
46412;BME280;32113;42.012;24.870;2023-01-29T01:47:47;99160.28;;;7.42;50.60
46412;BME280;32113;42.012;24.870;2023-01-29T01:50:15;99150.91;;;7.34;50.28
46412;BME280;32113;42.012;24.870;2023-01-29T01:52:43;99149.19;;;7.30;50.67
46412;BME280;32113;42.012;24.870;2023-01-29T01:55:10;99146.56;;;7.19;50.62
46412;BME280;32113;42.012;24.870;2023-01-29T01:57:36;99149.97;;;7.23;51.13
46412;BME280;32113;42.012;24.870;2023-01-29T02:00:06;99151.72;;;7.24;51.26
46412;BME280;32113;42.012;24.870;2023-01-29T02:02:36;99147.44;;;7.25;50.77
46412;BME280;32113;42.012;24.870;2023-01-29T02:05:21;99152.59;;;7.29;51.39
46412;BME280;32113;42.012;24.870;2023-01-29T02:08:05;99154.31;;;7.40;50.53
46412;BME280;32113;42.012;24.870;2023-01-29T02:10:49;99161.06;;;7.30;50.63
46412;BME280;32113;42.012;24.870;2023-01-29T02:13:14;99152.59;;;7.31;51.36
46412;BME280;32113;42.012;24.870;2023-01-29T02:15:41;99156.84;;;7.36;50.49
46412;BME280;32113;42.012;24.870;2023-01-29T02:18:13;99157.69;;;7.28;50.97
46412;BME280;32113;42.012;24.870;2023-01-29T02:20:40;99168.75;;;7.31;51.15
46412;BME280;32113;42.012;24.870;2023-01-29T02:35:55;99172.16;;;7.30;52.16
46412;BME280;32113;42.012;24.870;2023-01-29T02:38:29;99173.84;;;7.27;51.97
46412;BME280;32113;42.012;24.870;2023-01-29T02:40:59;99182.34;;;7.26;52.98
46412;BME280;32113;42.012;24.870;2023-01-29T02:45:53;99186.59;;;7.25;52.64
46412;BME280;32113;42.012;24.870;2023-01-29T02:48:21;99178.03;;;7.18;53.35
46412;BME280;32113;42.012;24.870;2023-01-29T02:55:51;99187.41;;;7.19;53.51
46412;BME280;32113;42.012;24.870;2023-01-29T02:58:20;99188.25;;;7.17;53.13
46412;BME280;32113;42.012;24.870;2023-01-29T03:00:49;99188.25;;;7.23;53.26
46412;BME280;32113;42.012;24.870;2023-01-29T03:05:47;99191.59;;;7.08;53.81
46412;BME280;32113;42.012;24.870;2023-01-29T03:08:15;99199.31;;;7.16;53.51
46412;BME280;32113;42.012;24.870;2023-01-29T03:10:59;99185.69;;;7.15;53.14
46412;BME280;32113;42.012;24.870;2023-01-29T03:15:54;99193.28;;;7.03;53.85
46412;BME280;32113;42.012;24.870;2023-01-29T03:18:25;99201.78;;;7.06;54.70
46412;BME280;32113;42.012;24.870;2023-01-29T03:20:56;99194.16;;;7.11;54.32
46412;BME280;32113;42.012;24.870;2023-01-29T03:23:25;99200.09;;;7.10;54.64
46412;BME280;32113;42.012;24.870;2023-01-29T03:26:12;99207.00;;;7.19;54.83
46412;BME280;32113;42.012;24.870;2023-01-29T03:28:56;99205.25;;;7.13;54.31
46412;BME280;32113;42.012;24.870;2023-01-29T03:31:42;99207.50;;;6.73;55.48
46412;BME280;32113;42.012;24.870;2023-01-29T03:34:26;99212.47;;;6.55;56.58
46412;BME280;32113;42.012;24.870;2023-01-29T03:37:14;99214.25;;;6.63;56.54
46412;BME280;32113;42.012;24.870;2023-01-29T03:39:43;99222.72;;;6.63;56.68
46412;BME280;32113;42.012;24.870;2023-01-29T03:42:20;99211.69;;;6.66;56.35
46412;BME280;32113;42.012;24.870;2023-01-29T03:47:17;99226.81;;;6.47;56.11
46412;BME280;32113;42.012;24.870;2023-01-29T03:57:14;99238.56;;;6.29;57.59
46412;BME280;32113;42.012;24.870;2023-01-29T03:59:52;99244.59;;;6.36;57.15
46412;BME280;32113;42.012;24.870;2023-01-29T04:02:26;99234.34;;;6.31;57.69
46412;BME280;32113;42.012;24.870;2023-01-29T04:04:58;99238.56;;;6.31;58.13
46412;BME280;32113;42.012;24.870;2023-01-29T04:07:26;99243.69;;;6.29;58.61
46412;BME280;32113;42.012;24.870;2023-01-29T04:09:55;99249.28;;;6.02;58.39
46412;BME280;32113;42.012;24.870;2023-01-29T04:12:23;99249.44;;;6.13;58.88
46412;BME280;32113;42.012;24.870;2023-01-29T04:14:51;99256.41;;;6.28;59.20
46412;BME280;32113;42.012;24.870;2023-01-29T04:17:19;99256.50;;;6.39;58.86
46412;BME280;32113;42.012;24.870;2023-01-29T04:19:45;99252.34;;;6.46;58.75
46412;BME280;32113;42.012;24.870;2023-01-29T04:22:26;99254.91;;;6.50;58.78
46412;BME280;32113;42.012;24.870;2023-01-29T04:24:52;99258.31;;;6.51;59.66
46412;BME280;32113;42.012;24.870;2023-01-29T04:37:41;99272.81;;;6.55;60.56
46412;BME280;32113;42.012;24.870;2023-01-29T04:45:55;99285.50;;;6.50;61.30
46412;BME280;32113;42.012;24.870;2023-01-29T04:48:29;99281.22;;;6.48;61.91
46412;BME280;32113;42.012;24.870;2023-01-29T04:53:44;99284.44;;;6.31;62.58
46412;BME280;32113;42.012;24.870;2023-01-29T04:56:14;99288.81;;;6.41;62.25
46412;BME280;32113;42.012;24.870;2023-01-29T04:58:43;99295.47;;;6.28;62.38
46412;BME280;32113;42.012;24.870;2023-01-29T05:01:12;99298.13;;;6.36;62.60
46412;BME280;32113;42.012;24.870;2023-01-29T05:03:38;99296.38;;;6.34;62.16
46412;BME280;32113;42.012;24.870;2023-01-29T05:06:05;99300.66;;;6.35;62.33
46412;BME280;32113;42.012;24.870;2023-01-29T05:08:32;99312.56;;;6.37;63.02
46412;BME280;32113;42.012;24.870;2023-01-29T05:10:58;99308.31;;;6.36;63.06
46412;BME280;32113;42.012;24.870;2023-01-29T05:13:24;99310.97;;;6.46;63.17
46412;BME280;32113;42.012;24.870;2023-01-29T05:15:55;99313.53;;;6.49;62.52
46412;BME280;32113;42.012;24.870;2023-01-29T05:18:24;99313.56;;;6.52;62.72
46412;BME280;32113;42.012;24.870;2023-01-29T05:20:49;99314.38;;;6.49;62.52
46412;BME280;32113;42.012;24.870;2023-01-29T05:23:16;99320.38;;;6.53;62.48
46412;BME280;32113;42.012;24.870;2023-01-29T05:25:42;99321.22;;;6.52;62.31
46412;BME280;32113;42.012;24.870;2023-01-29T05:28:08;99321.28;;;6.60;62.56
46412;BME280;32113;42.012;24.870;2023-01-29T05:30:40;99327.34;;;6.69;61.97
46412;BME280;32113;42.012;24.870;2023-01-29T05:33:48;99323.88;;;6.63;61.34
46412;BME280;32113;42.012;24.870;2023-01-29T05:35:55;99324.69;;;6.62;61.88
46412;BME280;32113;42.012;24.870;2023-01-29T05:38:22;99319.63;;;6.63;62.44
46412;BME280;32113;42.012;24.870;2023-01-29T05:40:47;99331.53;;;6.63;62.30
46412;BME280;32113;42.012;24.870;2023-01-29T05:43:22;99334.00;;;6.58;62.86
46412;BME280;32113;42.012;24.870;2023-01-29T05:45:51;99327.22;;;6.59;62.78
46412;BME280;32113;42.012;24.870;2023-01-29T05:48:17;99327.22;;;6.59;63.24
46412;BME280;32113;42.012;24.870;2023-01-29T05:50:42;99328.94;;;6.60;62.41
46412;BME280;32113;42.012;24.870;2023-01-29T05:53:08;99338.38;;;6.67;62.35
46412;BME280;32113;42.012;24.870;2023-01-29T05:55:33;99333.19;;;6.61;62.46
46412;BME280;32113;42.012;24.870;2023-01-29T05:57:58;99330.69;;;6.65;62.34
46412;BME280;32113;42.012;24.870;2023-01-29T06:00:23;99334.09;;;6.67;63.17
46412;BME280;32113;42.012;24.870;2023-01-29T06:02:49;99334.19;;;6.74;63.03
46412;BME280;32113;42.012;24.870;2023-01-29T06:05:14;99343.50;;;6.72;62.69
46412;BME280;32113;42.012;24.870;2023-01-29T06:07:39;99342.75;;;6.79;62.25
46412;BME280;32113;42.012;24.870;2023-01-29T06:10:10;99341.09;;;6.84;62.42
46412;BME280;32113;42.012;24.870;2023-01-29T06:12:35;99346.16;;;6.82;61.98
46412;BME280;32113;42.012;24.870;2023-01-29T06:15:00;99346.16;;;6.81;62.41
46412;BME280;32113;42.012;24.870;2023-01-29T06:17:25;99352.13;;;6.84;62.23
46412;BME280;32113;42.012;24.870;2023-01-29T06:19:51;99352.97;;;6.83;62.22
46412;BME280;32113;42.012;24.870;2023-01-29T06:22:16;99355.59;;;6.88;62.15
46412;BME280;32113;42.012;24.870;2023-01-29T06:24:41;99362.38;;;6.89;62.43
46412;BME280;32113;42.012;24.870;2023-01-29T06:27:06;99369.22;;;6.93;61.75
46412;BME280;32113;42.012;24.870;2023-01-29T06:29:32;99364.09;;;6.90;60.80
46412;BME280;32113;42.012;24.870;2023-01-29T06:31:57;99366.66;;;6.92;60.92
46412;BME280;32113;42.012;24.870;2023-01-29T06:34:22;99372.63;;;6.94;60.76
46412;BME280;32113;42.012;24.870;2023-01-29T06:36:48;99370.94;;;6.96;60.10
46412;BME280;32113;42.012;24.870;2023-01-29T06:39:13;99376.09;;;7.02;60.75
46412;BME280;32113;42.012;24.870;2023-01-29T06:41:38;99385.41;;;6.97;59.99
46412;BME280;32113;42.012;24.870;2023-01-29T06:44:03;99379.41;;;6.90;60.09
46412;BME280;32113;42.012;24.870;2023-01-29T06:46:29;99374.28;;;6.89;57.76
46412;BME280;32113;42.012;24.870;2023-01-29T06:48:56;99380.16;;;6.81;58.49
46412;BME280;32113;42.012;24.870;2023-01-29T06:51:21;99371.66;;;6.81;57.60
46412;BME280;32113;42.012;24.870;2023-01-29T06:53:47;99386.91;;;6.78;58.20
46412;BME280;32113;42.012;24.870;2023-01-29T06:56:12;99387.66;;;6.64;58.02
46412;BME280;32113;42.012;24.870;2023-01-29T06:58:37;99395.31;;;6.69;58.91
46412;BME280;32113;42.012;24.870;2023-01-29T07:01:03;99395.38;;;6.75;59.25
46412;BME280;32113;42.012;24.870;2023-01-29T07:03:29;99394.66;;;6.84;59.83
46412;BME280;32113;42.012;24.870;2023-01-29T07:05:54;99401.56;;;6.96;59.77
46412;BME280;32113;42.012;24.870;2023-01-29T07:08:19;99399.84;;;6.96;60.40
46412;BME280;32113;42.012;24.870;2023-01-29T07:10:46;99405.84;;;7.02;58.65
46412;BME280;32113;42.012;24.870;2023-01-29T07:13:12;99404.97;;;6.96;58.99
46412;BME280;32113;42.012;24.870;2023-01-29T07:15:37;99406.56;;;6.87;58.83
46412;BME280;32113;42.012;24.870;2023-01-29T07:18:02;99412.63;;;6.95;58.52
46412;BME280;32113;42.012;24.870;2023-01-29T07:20:29;99406.69;;;6.97;58.77
46412;BME280;32113;42.012;24.870;2023-01-29T07:22:55;99415.16;;;6.95;58.71
46412;BME280;32113;42.012;24.870;2023-01-29T07:25:21;99411.72;;;6.93;59.20
46412;BME280;32113;42.012;24.870;2023-01-29T07:27:46;99418.53;;;6.94;58.90
46412;BME280;32113;42.012;24.870;2023-01-29T07:30:11;99412.66;;;7.01;59.11
46412;BME280;32113;42.012;24.870;2023-01-29T07:32:37;99419.53;;;7.07;58.34
46412;BME280;32113;42.012;24.870;2023-01-29T07:35:02;99408.53;;;7.14;57.84
46412;BME280;32113;42.012;24.870;2023-01-29T07:37:27;99413.75;;;7.27;57.95
46412;BME280;32113;42.012;24.870;2023-01-29T07:39:53;99407.72;;;7.18;57.39
46412;BME280;32113;42.012;24.870;2023-01-29T07:42:18;99405.19;;;7.20;57.80
46412;BME280;32113;42.012;24.870;2023-01-29T07:44:43;99413.69;;;7.20;57.98
46412;BME280;32113;42.012;24.870;2023-01-29T07:47:08;99411.22;;;7.27;58.08
46412;BME280;32113;42.012;24.870;2023-01-29T07:49:34;99408.66;;;7.30;57.72
46412;BME280;32113;42.012;24.870;2023-01-29T07:51:59;99412.09;;;7.30;56.83
46412;BME280;32113;42.012;24.870;2023-01-29T07:54:24;99407.00;;;7.32;56.47
46412;BME280;32113;42.012;24.870;2023-01-29T07:56:50;99410.25;;;7.15;57.36
46412;BME280;32113;42.012;24.870;2023-01-29T07:59:15;99405.97;;;7.13;57.72
46412;BME280;32113;42.012;24.870;2023-01-29T08:01:41;99418.78;;;7.20;57.66
46412;BME280;32113;42.012;24.870;2023-01-29T08:04:06;99415.41;;;7.20;58.20
46412;BME280;32113;42.012;24.870;2023-01-29T08:06:31;99413.72;;;7.22;57.59
46412;BME280;32113;42.012;24.870;2023-01-29T08:08:56;99415.41;;;7.20;58.74
46412;BME280;32113;42.012;24.870;2023-01-29T08:11:23;99420.50;;;7.20;59.59
46412;BME280;32113;42.012;24.870;2023-01-29T08:13:48;99431.56;;;7.19;57.89
46412;BME280;32113;42.012;24.870;2023-01-29T08:16:14;99424.66;;;7.10;58.58
46412;BME280;32113;42.012;24.870;2023-01-29T08:18:39;99431.53;;;7.17;58.91
46412;BME280;32113;42.012;24.870;2023-01-29T08:21:08;99427.28;;;7.16;56.56
46412;BME280;32113;42.012;24.870;2023-01-29T08:23:33;99430.53;;;7.01;57.03
46412;BME280;32113;42.012;24.870;2023-01-29T08:25:58;99435.50;;;6.89;57.08
46412;BME280;32113;42.012;24.870;2023-01-29T08:28:25;99431.19;;;6.84;57.74
46412;BME280;32113;42.012;24.870;2023-01-29T08:30:51;99431.19;;;6.81;57.60
46412;BME280;32113;42.012;24.870;2023-01-29T08:33:16;99437.84;;;6.72;57.15
46412;BME280;32113;42.012;24.870;2023-01-29T08:35:41;99442.19;;;6.80;57.01
46412;BME280;32113;42.012;24.870;2023-01-29T08:38:07;99437.00;;;6.71;58.05
46412;BME280;32113;42.012;24.870;2023-01-29T08:40:33;99439.63;;;6.77;57.78
46412;BME280;32113;42.012;24.870;2023-01-29T08:42:59;99444.00;;;6.88;57.14
46412;BME280;32113;42.012;24.870;2023-01-29T08:45:25;99442.41;;;6.97;57.86
46412;BME280;32113;42.012;24.870;2023-01-29T08:47:50;99445.78;;;6.95;56.42
46412;BME280;32113;42.012;24.870;2023-01-29T08:50:16;99444.94;;;6.99;56.97
46412;BME280;32113;42.012;24.870;2023-01-29T08:52:41;99453.59;;;7.10;55.95
46412;BME280;32113;42.012;24.870;2023-01-29T08:55:07;99453.50;;;7.01;56.11
46412;BME280;32113;42.012;24.870;2023-01-29T08:57:32;99450.09;;;7.02;57.35
46412;BME280;32113;42.012;24.870;2023-01-29T08:59:57;99444.06;;;6.95;56.33
46412;BME280;32113;42.012;24.870;2023-01-29T09:02:23;99448.44;;;7.04;55.82
46412;BME280;32113;42.012;24.870;2023-01-29T09:04:48;99453.50;;;7.01;56.01
46412;BME280;32113;42.012;24.870;2023-01-29T09:07:13;99450.97;;;7.04;55.66
46412;BME280;32113;42.012;24.870;2023-01-29T09:09:39;99449.19;;;6.95;56.29
46412;BME280;32113;42.012;24.870;2023-01-29T09:12:04;99450.91;;;7.00;56.61
46412;BME280;32113;42.012;24.870;2023-01-29T09:14:29;99444.06;;;6.95;55.74
46412;BME280;32113;42.012;24.870;2023-01-29T09:16:55;99445.88;;;7.04;55.99
46412;BME280;32113;42.012;24.870;2023-01-29T09:19:20;99446.00;;;7.18;56.50
46412;BME280;32113;42.012;24.870;2023-01-29T09:21:46;99445.03;;;7.05;55.98
46412;BME280;32113;42.012;24.870;2023-01-29T09:24:11;99439.75;;;6.90;56.12
46412;BME280;32113;42.012;24.870;2023-01-29T09:26:36;99443.94;;;6.81;56.17
46412;BME280;32113;42.012;24.870;2023-01-29T09:29:03;99443.88;;;6.77;56.72
46412;BME280;32113;42.012;24.870;2023-01-29T09:31:28;99447.22;;;6.73;57.08
46412;BME280;32113;42.012;24.870;2023-01-29T09:33:54;99438.94;;;6.94;56.34
46412;BME280;32113;42.012;24.870;2023-01-29T09:36:19;99440.59;;;6.86;56.40
46412;BME280;32113;42.012;24.870;2023-01-29T09:38:44;99444.84;;;6.90;57.03
46412;BME280;32113;42.012;24.870;2023-01-29T09:44:16;99436.09;;;6.64;56.80
46412;BME280;32113;42.012;24.870;2023-01-29T09:46:44;99441.22;;;6.67;56.53
46412;BME280;32113;42.012;24.870;2023-01-29T09:49:19;99430.38;;;6.86;56.83
46412;BME280;32113;42.012;24.870;2023-01-29T09:51:51;99436.47;;;6.99;56.25
46412;BME280;32113;42.012;24.870;2023-01-29T09:56:43;99433.81;;;6.92;55.65
46412;BME280;32113;42.012;24.870;2023-01-29T09:59:10;99427.53;;;6.61;56.29
46412;BME280;32113;42.012;24.870;2023-01-29T10:17:00;99424.34;;;6.77;55.12
46412;BME280;32113;42.012;24.870;2023-01-29T10:22:20;99418.84;;;6.44;55.87
46412;BME280;32113;42.012;24.870;2023-01-29T10:24:54;99403.59;;;6.49;56.27
46412;BME280;32113;42.012;24.870;2023-01-29T10:27:21;99405.50;;;6.67;55.44
46412;BME280;32113;42.012;24.870;2023-01-29T10:29:48;99407.19;;;6.64;55.43
46412;BME280;32113;42.012;24.870;2023-01-29T10:32:17;99402.22;;;6.76;55.79
46412;BME280;32113;42.012;24.870;2023-01-29T10:34:44;99400.59;;;6.84;56.00
46412;BME280;32113;42.012;24.870;2023-01-29T10:37:16;99395.53;;;6.88;54.87
46412;BME280;32113;42.012;24.870;2023-01-29T10:39:42;99394.66;;;6.87;54.23
46412;BME280;32113;42.012;24.870;2023-01-29T10:42:25;99392.94;;;6.84;54.56
46412;BME280;32113;42.012;24.870;2023-01-29T11:02:44;99381.06;;;6.85;54.11
46412;BME280;32113;42.012;24.870;2023-01-29T11:05:15;99374.34;;;6.93;54.54
46412;BME280;32113;42.012;24.870;2023-01-29T11:07:43;99368.44;;;6.97;53.71
46412;BME280;32113;42.012;24.870;2023-01-29T11:10:14;99367.59;;;7.03;53.11
46412;BME280;32113;42.012;24.870;2023-01-29T11:12:41;99366.84;;;7.10;53.58
46412;BME280;32113;42.012;24.870;2023-01-29T11:17:36;99365.34;;;7.38;52.75
46412;BME280;32113;42.012;24.870;2023-01-29T11:20:01;99358.69;;;7.60;52.45
46412;BME280;32113;42.012;24.870;2023-01-29T11:22:30;99349.47;;;7.78;52.35
46412;BME280;32113;42.012;24.870;2023-01-29T11:30:24;99337.69;;;8.15;50.30
46412;BME280;32113;42.012;24.870;2023-01-29T11:32:52;99331.75;;;8.13;49.15
46412;BME280;32113;42.012;24.870;2023-01-29T11:35:21;99337.78;;;8.34;49.62
46412;BME280;32113;42.012;24.870;2023-01-29T11:37:47;99339.53;;;8.51;48.82
46412;BME280;32113;42.012;24.870;2023-01-29T11:42:47;99333.59;;;8.53;48.85
46412;BME280;32113;42.012;24.870;2023-01-29T11:45:31;99326.72;;;8.38;48.22
46412;BME280;32113;42.012;24.870;2023-01-29T11:47:58;99322.53;;;8.56;48.84
46412;BME280;32113;42.012;24.870;2023-01-29T11:50:25;99322.53;;;8.70;47.85
46412;BME280;32113;42.012;24.870;2023-01-29T11:52:51;99323.44;;;8.74;47.77
46412;BME280;32113;42.012;24.870;2023-01-29T11:55:18;99320.00;;;8.72;48.05
46412;BME280;32113;42.012;24.870;2023-01-29T11:57:49;99319.09;;;8.51;48.12
46412;BME280;32113;42.012;24.870;2023-01-29T12:02:41;99307.19;;;8.68;48.37
46412;BME280;32113;42.012;24.870;2023-01-29T12:07:40;99316.59;;;8.74;47.95
46412;BME280;32113;42.012;24.870;2023-01-29T12:10:26;99310.63;;;8.78;48.11
46412;BME280;32113;42.012;24.870;2023-01-29T12:12:51;99311.50;;;8.85;48.00
46412;BME280;32113;42.012;24.870;2023-01-29T12:15:27;99313.19;;;8.85;46.82
46412;BME280;32113;42.012;24.870;2023-01-29T12:18:38;99305.50;;;8.64;46.56
46412;BME280;32113;42.012;24.870;2023-01-29T12:20:40;99301.25;;;8.70;46.74
46412;BME280;32113;42.012;24.870;2023-01-29T12:25:35;99303.81;;;8.85;47.31
46412;BME280;32113;42.012;24.870;2023-01-29T12:28:03;99301.25;;;8.93;47.35
46412;BME280;32113;42.012;24.870;2023-01-29T12:30:32;99294.44;;;9.04;45.78
46412;BME280;32113;42.012;24.870;2023-01-29T12:33:04;99302.97;;;8.91;46.55
46412;BME280;32113;42.012;24.870;2023-01-29T12:35:44;99295.28;;;8.97;46.76
46412;BME280;32113;42.012;24.870;2023-01-29T12:38:19;99293.56;;;8.99;47.00
46412;BME280;32113;42.012;24.870;2023-01-29T12:40:52;99290.16;;;8.99;45.73
46412;BME280;32113;42.012;24.870;2023-01-29T12:43:23;99291.88;;;9.03;46.04
46412;BME280;32113;42.012;24.870;2023-01-29T12:45:52;99289.31;;;8.92;45.12
46412;BME280;32113;42.012;24.870;2023-01-29T12:48:40;99285.88;;;8.90;45.70
46412;BME280;32113;42.012;24.870;2023-01-29T12:51:26;99279.06;;;8.98;50.41
46412;BME280;32113;42.012;24.870;2023-01-29T12:53:53;99279.91;;;9.02;46.04
46412;BME280;32113;42.012;24.870;2023-01-29T12:58:49;99283.31;;;9.18;46.08
46412;BME280;32113;42.012;24.870;2023-01-29T13:01:33;99280.78;;;9.21;46.46
46412;BME280;32113;42.012;24.870;2023-01-29T13:04:04;99277.34;;;9.20;45.85
46412;BME280;32113;42.012;24.870;2023-01-29T13:06:33;99278.19;;;9.19;45.70
46412;BME280;32113;42.012;24.870;2023-01-29T13:09:02;99281.59;;;9.25;45.96
46412;BME280;32113;42.012;24.870;2023-01-29T13:13:58;99285.91;;;8.94;45.53
46412;BME280;32113;42.012;24.870;2023-01-29T13:16:26;99283.31;;;8.82;45.89
46412;BME280;32113;42.012;24.870;2023-01-29T13:19:00;99287.59;;;8.64;45.44
46412;BME280;32113;42.012;24.870;2023-01-29T13:21:30;99285.84;;;8.51;46.18
46412;BME280;32113;42.012;24.870;2023-01-29T13:24:00;99287.50;;;8.36;46.70
46412;BME280;32113;42.012;24.870;2023-01-29T13:26:26;99284.97;;;8.50;46.86
46412;BME280;32113;42.012;24.870;2023-01-29T13:28:53;99287.53;;;8.49;46.35
46412;BME280;32113;42.012;24.870;2023-01-29T13:36:36;99284.94;;;8.39;46.16
46412;BME280;32113;42.012;24.870;2023-01-29T13:39:06;99279.91;;;8.55;45.21
46412;BME280;32113;42.012;24.870;2023-01-29T13:41:33;99279.91;;;8.69;45.19
46412;BME280;32113;42.012;24.870;2023-01-29T13:43:59;99283.34;;;8.85;45.38
46412;BME280;32113;42.012;24.870;2023-01-29T13:46:24;99285.91;;;8.94;44.47
46412;BME280;32113;42.012;24.870;2023-01-29T13:48:49;99285.06;;;8.91;44.44
46412;BME280;32113;42.012;24.870;2023-01-29T13:51:18;99289.31;;;8.97;45.00
46412;BME280;32113;42.012;24.870;2023-01-29T13:53:52;99291.88;;;8.92;45.57
46412;BME280;32113;42.012;24.870;2023-01-29T13:58:53;99296.13;;;8.85;45.37
46412;BME280;32113;42.012;24.870;2023-01-29T14:01:56;99291.88;;;8.89;45.42
46412;BME280;32113;42.012;24.870;2023-01-29T14:04:14;99295.28;;;8.88;45.61
46412;BME280;32113;42.012;24.870;2023-01-29T14:06:50;99291.88;;;8.89;45.86
46412;BME280;32113;42.012;24.870;2023-01-29T14:11:59;99286.75;;;8.72;45.42
46412;BME280;32113;42.012;24.870;2023-01-29T14:17:09;99287.59;;;8.69;45.03
46412;BME280;32113;42.012;24.870;2023-01-29T14:19:34;99290.16;;;8.63;45.91
46412;BME280;32113;42.012;24.870;2023-01-29T14:22:00;99285.84;;;8.54;45.82
46412;BME280;32113;42.012;24.870;2023-01-29T14:24:27;99285.88;;;8.63;46.62
46412;BME280;32113;42.012;24.870;2023-01-29T14:26:54;99285.88;;;8.59;46.25
46412;BME280;32113;42.012;24.870;2023-01-29T14:29:22;99287.56;;;8.58;46.39
46412;BME280;32113;42.012;24.870;2023-01-29T14:31:58;99290.16;;;8.64;46.97
46412;BME280;32113;42.012;24.870;2023-01-29T14:36:54;99292.69;;;8.67;46.37
46412;BME280;32113;42.012;24.870;2023-01-29T14:39:21;99298.69;;;8.74;46.54
46412;BME280;32113;42.012;24.870;2023-01-29T14:41:48;99296.13;;;8.66;46.11
46412;BME280;32113;42.012;24.870;2023-01-29T14:46:58;99310.63;;;8.63;46.80
46412;BME280;32113;42.012;24.870;2023-01-29T14:52:09;99306.34;;;8.66;46.90
46412;BME280;32113;42.012;24.870;2023-01-29T14:54:36;99307.22;;;8.67;45.76
46412;BME280;32113;42.012;24.870;2023-01-29T14:57:04;99314.88;;;8.67;46.43
46412;BME280;32113;42.012;24.870;2023-01-29T14:59:33;99314.00;;;8.57;46.38
46412;BME280;32113;42.012;24.870;2023-01-29T15:02:23;99323.41;;;8.61;46.68
46412;BME280;32113;42.012;24.870;2023-01-29T15:04:49;99313.09;;;8.47;46.74
46412;BME280;32113;42.012;24.870;2023-01-29T15:07:19;99319.06;;;8.49;46.85
46412;BME280;32113;42.012;24.870;2023-01-29T15:12:42;99316.56;;;8.59;46.82
46412;BME280;32113;42.012;24.870;2023-01-29T15:15:31;99319.13;;;8.59;47.03
46412;BME280;32113;42.012;24.870;2023-01-29T15:18:07;99321.66;;;8.54;46.93
46412;BME280;32113;42.012;24.870;2023-01-29T15:22:58;99318.16;;;8.38;47.19
46412;BME280;32113;42.012;24.870;2023-01-29T15:25:24;99323.28;;;8.32;47.37
46412;BME280;32113;42.012;24.870;2023-01-29T15:27:50;99328.38;;;8.32;47.65
46412;BME280;32113;42.012;24.870;2023-01-29T15:30:21;99324.09;;;8.21;47.64
46412;BME280;32113;42.012;24.870;2023-01-29T15:32:46;99331.81;;;8.31;48.10